Time;durP1;ratioP1;P1;durP2;ratioP2;P2;SDS_P1;SDS_P2;PMS_P1;PMS_P2;Temp;Humidity;BMP_temperature;BMP_pressure;BME280_temperature;BME280_humidity;BME280_pressure;Samples;Min_cycle;Max_cycle;Signal;HPM_P1;HPM_P2
2022/03/16 00:02:03;;;;;;;21.77;11.80;;;4.50;99.90;;;;;;5035502;28;20120;-74
2022/03/16 00:04:29;;;;;;;19.80;12.13;;;4.50;99.90;;;;;;5035142;28;20424;-74
2022/03/16 00:06:55;;;;;;;28.90;14.10;;;4.40;99.90;;;;;;5035258;28;20036;-74
2022/03/16 00:09:20;;;;;;;29.00;14.50;;;4.40;99.90;;;;;;5000582;28;20483;-74
2022/03/16 00:11:46;;;;;;;26.17;13.83;;;4.50;99.90;;;;;;5035579;28;20068;-74
2022/03/16 00:14:12;;;;;;;26.57;12.97;;;4.50;99.90;;;;;;5019727;28;20116;-74
2022/03/16 00:16:37;;;;;;;23.80;10.97;;;4.50;99.90;;;;;;5033400;28;20029;-74
2022/03/16 00:19:03;;;;;;;24.67;14.43;;;4.50;99.90;;;;;;5034746;28;20490;-74
2022/03/16 00:21:29;;;;;;;31.30;15.15;;;4.60;99.90;;;;;;5034998;28;20026;-74
2022/03/16 00:23:55;;;;;;;26.58;14.05;;;4.60;99.90;;;;;;5017459;28;20463;-74
2022/03/16 00:26:20;;;;;;;25.10;13.90;;;4.50;99.90;;;;;;5034767;28;20037;-74
2022/03/16 00:28:46;;;;;;;20.77;11.60;;;4.50;99.90;;;;;;5034492;28;20033;-74
2022/03/16 00:31:12;;;;;;;20.43;12.20;;;4.30;99.90;;;;;;5034588;28;20029;-74
2022/03/16 00:33:38;;;;;;;20.63;11.37;;;4.20;99.90;;;;;;5035121;28;20033;-74
2022/03/16 00:36:04;;;;;;;17.40;10.90;;;4.10;99.90;;;;;;5034649;28;20033;-74
2022/03/16 00:38:29;;;;;;;20.70;10.13;;;4.00;99.90;;;;;;5016848;28;20038;-75
2022/03/16 00:40:56;;;;;;;15.13;9.80;;;3.90;99.90;;;;;;5034486;28;20580;-74
2022/03/16 00:43:21;;;;;;;16.88;9.80;;;3.90;99.90;;;;;;5017185;28;20052;-74
2022/03/16 00:45:47;;;;;;;14.10;7.97;;;3.80;99.90;;;;;;5034759;28;20034;-74
2022/03/16 00:48:13;;;;;;;23.93;12.47;;;3.80;99.90;;;;;;5034752;28;20112;-75
2022/03/16 00:50:38;;;;;;;22.70;12.67;;;3.70;99.90;;;;;;5033932;28;20037;-74
2022/03/16 00:53:04;;;;;;;20.87;11.47;;;3.80;99.90;;;;;;5016568;28;20424;-74
2022/03/16 00:55:29;;;;;;;22.33;9.77;;;3.70;99.90;;;;;;5034574;28;20029;-74
2022/03/16 00:57:55;;;;;;;19.73;10.87;;;3.60;99.90;;;;;;5036197;28;20040;-74
2022/03/16 01:00:21;;;;;;;17.17;10.43;;;3.50;99.90;;;;;;5019145;28;20049;-74
2022/03/16 01:02:46;;;;;;;23.87;10.57;;;3.50;99.90;;;;;;5019619;28;20064;-74
2022/03/16 01:05:12;;;;;;;19.93;11.57;;;3.40;99.90;;;;;;5037511;28;20034;-74
2022/03/16 01:07:38;;;;;;;32.27;13.73;;;3.40;99.90;;;;;;5019765;28;20033;-74
2022/03/16 01:10:05;;;;;;;20.83;11.13;;;3.30;99.90;;;;;;5037874;28;20401;-74
2022/03/16 01:12:30;;;;;;;16.50;10.50;;;3.30;99.90;;;;;;5036068;28;20328;-74
2022/03/16 01:14:56;;;;;;;29.07;13.20;;;3.20;99.90;;;;;;5037143;28;20029;-74
2022/03/16 01:17:22;;;;;;;23.47;13.20;;;3.20;99.90;;;;;;5037192;28;20060;-74
2022/03/16 01:19:48;;;;;;;29.97;14.67;;;3.30;99.90;;;;;;5037474;28;20037;-75
2022/03/16 01:22:13;;;;;;;26.50;13.87;;;3.30;99.90;;;;;;5037638;28;20067;-74
2022/03/16 01:24:39;;;;;;;26.30;13.53;;;3.40;99.90;;;;;;5036932;28;20064;-74
2022/03/16 01:27:05;;;;;;;26.87;13.53;;;3.40;99.90;;;;;;5036906;28;20033;-74
2022/03/16 01:29:32;;;;;;;20.77;12.27;;;3.30;99.90;;;;;;5037247;28;20435;-74
2022/03/16 01:31:57;;;;;;;20.15;11.52;;;3.40;99.90;;;;;;5036986;28;20427;-74
2022/03/16 01:34:23;;;;;;;24.83;12.47;;;3.30;99.90;;;;;;5037186;28;20029;-73
2022/03/16 01:36:49;;;;;;;16.10;9.47;;;3.30;99.90;;;;;;5037529;28;20116;-74
2022/03/16 01:39:15;;;;;;;19.77;12.13;;;3.40;99.90;;;;;;5018908;28;20092;-74
2022/03/16 01:41:42;;;;;;;25.50;13.00;;;3.30;99.90;;;;;;5020639;28;20079;-74
2022/03/16 01:44:08;;;;;;;22.05;13.02;;;3.40;99.90;;;;;;5036098;28;20076;-74
2022/03/16 01:46:34;;;;;;;28.30;13.82;;;3.40;99.90;;;;;;5036574;28;20036;-74
2022/03/16 01:49:00;;;;;;;28.10;13.43;;;3.30;99.90;;;;;;5036909;28;20104;-73
2022/03/16 01:51:26;;;;;;;27.27;15.00;;;3.20;99.90;;;;;;5018960;28;20113;-74
2022/03/16 01:53:52;;;;;;;22.80;12.32;;;3.20;99.90;;;;;;5023945;28;20022;-74
2022/03/16 01:56:19;;;;;;;15.93;9.43;;;3.10;99.90;;;;;;4999117;28;20041;-74
2022/03/16 01:58:45;;;;;;;25.30;13.05;;;3.00;99.90;;;;;;5028419;28;20109;-73
2022/03/16 02:01:11;;;;;;;24.03;12.50;;;3.00;99.90;;;;;;5025028;28;20108;-74
2022/03/16 02:03:37;;;;;;;30.73;15.10;;;3.00;99.90;;;;;;5036239;28;20034;-74
2022/03/16 02:06:03;;;;;;;26.83;12.37;;;3.10;99.90;;;;;;5036867;28;20029;-73
2022/03/16 02:08:30;;;;;;;33.25;15.45;;;3.20;99.90;;;;;;5036256;28;20290;-73
2022/03/16 02:10:56;;;;;;;;;;;3.20;99.90;;;;;;5037269;28;20036;-73
2022/03/16 02:13:21;;;;;;;30.45;15.05;;;3.20;99.90;;;;;;5036338;28;19913;-74
2022/03/16 02:15:47;;;;;;;42.93;19.40;;;3.20;99.90;;;;;;5035897;28;20360;-74
2022/03/16 02:18:14;;;;;;;31.63;15.37;;;3.20;99.90;;;;;;5018873;28;20029;-74
2022/03/16 02:20:39;;;;;;;30.42;15.88;;;3.10;99.90;;;;;;5036545;28;20029;-74
2022/03/16 02:23:07;;;;;;;23.17;12.03;;;3.10;99.90;;;;;;5035201;28;20100;-74
2022/03/16 02:25:46;;;;;;;35.10;16.92;;;3.00;99.90;;;;;;5035888;28;20035;-73
2022/03/16 02:28:12;;;;;;;29.92;15.73;;;3.00;99.90;;;;;;5035534;28;20037;-73
2022/03/16 02:30:37;;;;;;;36.77;16.60;;;3.00;99.90;;;;;;5027047;28;20055;-74
2022/03/16 02:33:03;;;;;;;41.60;18.70;;;3.10;99.90;;;;;;5036219;28;20439;-74
2022/03/16 02:35:31;;;;;;;39.73;19.53;;;3.00;99.90;;;;;;5035803;28;20025;-74
2022/03/16 02:37:58;;;;;;;37.22;16.10;;;3.00;99.90;;;;;;5035955;28;20033;-74
2022/03/16 02:40:24;;;;;;;28.60;14.15;;;3.10;99.90;;;;;;4996211;28;20029;-74
2022/03/16 02:42:51;;;;;;;52.03;20.80;;;3.10;99.90;;;;;;5027343;28;20049;-74
2022/03/16 02:45:18;;;;;;;43.25;19.75;;;3.10;99.90;;;;;;5035760;28;20302;-74
2022/03/16 02:47:44;;;;;;;46.03;20.80;;;3.20;99.90;;;;;;5034979;28;20144;-74
2022/03/16 02:50:16;;;;;;;47.53;21.45;;;3.30;99.90;;;;;;5018134;28;20060;-74
2022/03/16 02:52:42;;;;;;;51.30;20.98;;;3.50;99.90;;;;;;5018091;28;20040;-74
2022/03/16 02:55:08;;;;;;;49.92;20.73;;;3.60;99.90;;;;;;5035725;28;20025;-74
2022/03/16 02:57:35;;;;;;;55.33;20.67;;;3.70;99.90;;;;;;5035352;28;20428;-74
2022/03/16 03:00:01;;;;;;;44.83;19.30;;;3.70;99.90;;;;;;5018049;28;20384;-74
2022/03/16 03:02:26;;;;;;;43.57;21.03;;;3.80;99.90;;;;;;5034872;28;20079;-73
2022/03/16 03:04:52;;;;;;;46.10;20.90;;;3.90;99.90;;;;;;5036021;28;20404;-74
2022/03/16 03:07:18;;;;;;;51.23;21.13;;;3.90;99.90;;;;;;5035118;28;20032;-75
2022/03/16 03:09:44;;;;;;;46.57;22.40;;;4.00;99.90;;;;;;5035425;28;20021;-73
2022/03/16 03:12:10;;;;;;;48.88;22.02;;;4.00;99.90;;;;;;5035120;28;20021;-73
2022/03/16 03:14:35;;;;;;;44.87;20.60;;;3.90;99.90;;;;;;5016734;28;20392;-74
2022/03/16 03:17:02;;;;;;;58.53;23.93;;;3.90;99.90;;;;;;5017671;28;20060;-74
2022/03/16 03:19:28;;;;;;;49.30;21.90;;;4.00;99.90;;;;;;5035411;28;20417;-73
2022/03/16 03:21:54;;;;;;;50.03;22.80;;;4.00;99.90;;;;;;5034901;28;20037;-74
2022/03/16 03:24:20;;;;;;;51.00;23.47;;;4.00;99.90;;;;;;5034934;28;20057;-74
2022/03/16 03:26:45;;;;;;;45.67;21.67;;;4.00;99.90;;;;;;5017468;28;20037;-74
2022/03/16 03:29:11;;;;;;;55.17;23.50;;;4.10;99.90;;;;;;5035336;28;20034;-75
2022/03/16 03:31:37;;;;;;;52.77;23.13;;;4.10;99.90;;;;;;5017049;28;20112;-74
2022/03/16 03:34:03;;;;;;;43.67;22.33;;;4.00;99.90;;;;;;5035050;28;20037;-74
2022/03/16 03:36:30;;;;;;;45.38;21.10;;;4.00;99.90;;;;;;5034993;28;20320;-73
2022/03/16 03:38:55;;;;;;;45.92;20.58;;;3.90;99.90;;;;;;5034906;28;20048;-73
2022/03/16 03:41:21;;;;;;;46.37;21.63;;;3.90;99.90;;;;;;5017853;28;20428;-73
2022/03/16 03:43:47;;;;;;;45.83;22.17;;;4.00;99.90;;;;;;5034359;28;20122;-74
2022/03/16 03:46:13;;;;;;;46.27;22.37;;;4.00;99.90;;;;;;5035011;28;20033;-74
2022/03/16 03:48:38;;;;;;;48.27;21.93;;;4.00;99.90;;;;;;5035362;28;20024;-73
2022/03/16 03:51:04;;;;;;;51.43;22.13;;;4.10;99.90;;;;;;5035067;28;20072;-73
2022/03/16 03:53:30;;;;;;;49.97;23.30;;;4.00;99.90;;;;;;5017334;28;20049;-73
2022/03/16 03:55:55;;;;;;;37.67;17.37;;;4.00;99.90;;;;;;5035321;28;20029;-73
2022/03/16 03:58:21;;;;;;;52.37;21.90;;;4.00;99.90;;;;;;5034700;28;20053;-73
2022/03/16 04:00:49;;;;;;;45.70;22.27;;;4.00;99.90;;;;;;5018189;28;20030;-73
2022/03/16 04:03:15;;;;;;;60.63;24.90;;;4.00;99.90;;;;;;5034186;28;20420;-73
2022/03/16 04:05:40;;;;;;;56.13;24.53;;;4.00;99.90;;;;;;5016881;28;20037;-73
2022/03/16 04:08:06;;;;;;;51.57;23.77;;;4.00;99.90;;;;;;5034558;28;20029;-73
2022/03/16 04:10:32;;;;;;;49.43;22.97;;;4.00;99.90;;;;;;5035022;28;20049;-73
2022/03/16 04:12:57;;;;;;;44.80;19.53;;;4.00;99.90;;;;;;5033863;28;20052;-93
2022/03/16 04:15:23;;;;;;;55.60;24.60;;;4.00;99.90;;;;;;5016999;28;20033;-74
2022/03/16 04:17:49;;;;;;;58.73;26.37;;;4.10;99.90;;;;;;5034476;28;20040;-74
2022/03/16 04:20:14;;;;;;;43.37;19.10;;;4.00;99.90;;;;;;5017296;28;20065;-74
2022/03/16 04:22:40;;;;;;;62.43;26.97;;;4.00;99.90;;;;;;5034538;28;20068;-92
2022/03/16 04:25:06;;;;;;;54.90;26.00;;;4.00;99.90;;;;;;5033775;28;20060;-73
2022/03/16 04:27:32;;;;;;;55.90;24.92;;;4.00;99.90;;;;;;5034532;28;20022;-74
2022/03/16 04:29:58;;;;;;;59.97;25.37;;;4.00;99.90;;;;;;5016787;28;20032;-74
2022/03/16 04:32:24;;;;;;;46.07;19.57;;;4.00;99.90;;;;;;5033957;28;20029;-74
2022/03/16 04:34:49;;;;;;;64.00;26.00;;;4.10;99.90;;;;;;5017062;28;20112;-74
2022/03/16 04:37:15;;;;;;;54.33;24.83;;;4.10;99.90;;;;;;5034675;28;20045;-74
2022/03/16 04:39:41;;;;;;;60.27;24.47;;;4.20;99.90;;;;;;5034023;28;20321;-74
2022/03/16 04:42:07;;;;;;;45.13;19.17;;;4.20;99.90;;;;;;5034422;28;20022;-73
2022/03/16 04:44:32;;;;;;;59.00;24.40;;;4.20;99.90;;;;;;5033872;28;20021;-73
2022/03/16 04:46:58;;;;;;;59.63;25.50;;;4.20;99.90;;;;;;5035446;28;20021;-74
2022/03/16 04:49:24;;;;;;;43.90;19.10;;;4.20;99.90;;;;;;5038336;28;20156;-74
2022/03/16 04:51:49;;;;;;;61.13;23.13;;;4.20;99.90;;;;;;5038071;28;20439;-74
2022/03/16 04:54:16;;;;;;;41.23;17.23;;;4.30;99.90;;;;;;5037822;28;20104;-74
2022/03/16 04:56:42;;;;;;;;;;;4.30;99.90;;;;;;5020915;28;20435;-74
2022/03/16 04:59:08;;;;;;;45.03;19.17;;;4.30;99.90;;;;;;5020725;28;19984;-73
2022/03/16 05:01:34;;;;;;;44.20;19.87;;;4.30;99.90;;;;;;5037880;28;20137;-74
2022/03/16 05:04:00;;;;;;;33.90;15.70;;;4.30;99.90;;;;;;5037584;28;20036;-74
2022/03/16 05:06:25;;;;;;;51.87;21.57;;;4.30;99.90;;;;;;5020404;28;20021;-73
2022/03/16 05:08:51;;;;;;;40.37;18.07;;;4.40;99.90;;;;;;5037465;28;20053;-73
2022/03/16 05:11:20;;;;;;;52.13;22.93;;;4.40;99.90;;;;;;5037836;28;20400;-73
2022/03/16 05:13:46;;;;;;;47.83;19.70;;;4.40;99.90;;;;;;5038043;28;20033;-73
2022/03/16 05:16:12;;;;;;;48.00;22.17;;;4.40;99.90;;;;;;5043044;28;20324;-73
2022/03/16 05:18:40;;;;;;;45.23;20.30;;;4.50;99.90;;;;;;5013646;28;20029;-73
2022/03/16 05:21:09;;;;;;;44.92;21.15;;;4.50;99.90;;;;;;5036713;28;20036;-73
2022/03/16 05:23:35;;;;;;;43.63;20.00;;;4.40;99.90;;;;;;5031267;28;20049;-72
2022/03/16 05:26:01;;;;;;;41.38;19.10;;;4.50;99.90;;;;;;5016878;28;20025;-73
2022/03/16 05:28:27;;;;;;;51.37;20.70;;;4.60;99.90;;;;;;5035086;28;20048;-73
2022/03/16 05:30:52;;;;;;;41.83;20.80;;;4.60;99.90;;;;;;5035013;28;20026;-73
2022/03/16 05:33:18;;;;;;;35.53;17.93;;;4.60;99.90;;;;;;5028942;28;20080;-73
2022/03/16 05:35:44;;;;;;;30.27;14.80;;;4.60;99.90;;;;;;5036266;28;20113;-73
2022/03/16 05:38:13;;;;;;;35.27;16.23;;;4.70;99.90;;;;;;5031610;28;20187;-73
2022/03/16 05:40:40;;;;;;;38.13;17.33;;;4.70;99.90;;;;;;5017787;28;20059;-73
2022/03/16 05:43:08;;;;;;;34.03;14.60;;;4.70;99.90;;;;;;5028146;28;20071;-73
2022/03/16 05:45:34;;;;;;;38.10;16.20;;;4.80;99.90;;;;;;5032632;28;20087;-73
2022/03/16 05:48:00;;;;;;;33.33;16.45;;;4.90;99.90;;;;;;5036625;28;20116;-73
2022/03/16 05:50:28;;;;;;;35.57;16.23;;;5.00;99.90;;;;;;5036050;28;20088;-72
2022/03/16 05:53:01;;;;;;;33.85;16.23;;;5.10;99.90;;;;;;5015825;28;20400;-73
2022/03/16 05:55:28;;;;;;;44.72;16.25;;;5.10;99.90;;;;;;5035449;28;20040;-72
2022/03/16 05:57:54;;;;;;;33.40;14.50;;;5.10;99.90;;;;;;5035601;28;20070;-73
2022/03/16 06:00:23;;;;;;;37.10;17.27;;;5.10;99.90;;;;;;5035945;28;20316;-73
2022/03/16 06:02:49;;;;;;;37.75;16.88;;;5.10;99.90;;;;;;5032773;28;20024;-74
2022/03/16 06:05:16;;;;;;;28.95;13.63;;;5.10;99.90;;;;;;5031505;28;20032;-73
2022/03/16 06:07:43;;;;;;;30.65;13.95;;;5.10;99.90;;;;;;5028168;28;20456;-73
2022/03/16 06:10:12;;;;;;;27.08;14.73;;;5.10;99.90;;;;;;5029712;28;20022;-91
2022/03/16 06:12:50;;;;;;;30.70;14.45;;;5.10;99.90;;;;;;5015374;28;20478;-91
2022/03/16 06:15:16;;;;;;;33.00;16.90;;;5.20;99.90;;;;;;5028619;28;20104;-74
2022/03/16 06:17:41;;;;;;;23.43;10.77;;;5.20;99.90;;;;;;5017509;28;20045;-73
2022/03/16 06:20:08;;;;;;;28.73;13.20;;;5.20;99.90;;;;;;5032762;28;20022;-73
2022/03/16 06:22:34;;;;;;;27.48;15.13;;;5.20;99.90;;;;;;5027361;28;20041;-92
2022/03/16 06:24:59;;;;;;;38.90;16.40;;;5.10;99.90;;;;;;5022439;28;20033;-73
2022/03/16 06:27:25;;;;;;;30.70;15.93;;;5.20;99.90;;;;;;5032478;28;20037;-73
2022/03/16 06:29:50;;;;;;;33.67;17.30;;;5.20;99.90;;;;;;5026906;28;20064;-92
2022/03/16 06:32:16;;;;;;;28.33;15.37;;;5.20;99.90;;;;;;5030065;28;20110;-74
2022/03/16 06:34:42;;;;;;;37.43;16.20;;;5.20;99.90;;;;;;5026447;28;20290;-81
2022/03/16 06:37:07;;;;;;;38.43;17.33;;;5.20;99.90;;;;;;5027595;28;20437;-91
2022/03/16 06:39:33;;;;;;;35.50;17.10;;;5.20;99.90;;;;;;5015878;28;20040;-74
2022/03/16 06:41:58;;;;;;;39.20;16.37;;;5.20;99.90;;;;;;5023959;28;20109;-73
2022/03/16 06:44:24;;;;;;;32.33;14.33;;;5.30;99.90;;;;;;5032237;28;20316;-74
2022/03/16 06:46:51;;;;;;;27.30;11.73;;;5.30;99.90;;;;;;5032796;28;20355;-74
2022/03/16 06:49:16;;;;;;;26.95;13.38;;;5.30;99.90;;;;;;5028034;28;20349;-74
2022/03/16 06:51:42;;;;;;;29.20;13.33;;;5.40;99.90;;;;;;5026813;28;20061;-76
2022/03/16 06:54:08;;;;;;;30.60;14.47;;;5.70;99.90;;;;;;5026890;28;20049;-74
2022/03/16 06:56:33;;;;;;;37.37;15.27;;;5.80;99.90;;;;;;5029525;28;20120;-74
2022/03/16 06:58:59;;;;;;;20.80;9.97;;;6.00;99.90;;;;;;5028757;28;20116;-92
2022/03/16 07:01:25;;;;;;;30.50;13.83;;;6.20;99.90;;;;;;5027188;28;20045;-74
2022/03/16 07:03:50;;;;;;;29.77;15.67;;;6.50;99.90;;;;;;5029660;28;20021;-74
2022/03/16 07:06:16;;;;;;;23.93;13.57;;;6.90;99.90;;;;;;5016728;28;20034;-74
2022/03/16 07:08:42;;;;;;;30.80;16.10;;;7.20;99.90;;;;;;5016031;28;20087;-73
2022/03/16 07:11:07;;;;;;;32.17;15.13;;;7.70;99.90;;;;;;5013300;28;20419;-74
2022/03/16 07:13:33;;;;;;;30.98;12.32;;;8.20;99.90;;;;;;5018487;28;20179;-74
2022/03/16 07:15:59;;;;;;;18.48;9.98;;;8.40;99.90;;;;;;5018540;28;20025;-89
2022/03/16 07:18:25;;;;;;;29.43;16.23;;;8.60;99.90;;;;;;5035761;28;20044;-74
2022/03/16 07:20:51;;;;;;;35.13;14.40;;;8.80;99.90;;;;;;5017174;28;20033;-74
2022/03/16 07:23:19;;;;;;;29.87;15.13;;;9.20;99.90;;;;;;5035523;28;20057;-75
2022/03/16 07:25:47;;;;;;;27.38;14.40;;;9.40;99.90;;;;;;5035324;28;20048;-74
2022/03/16 07:28:14;;;;;;;26.98;14.50;;;9.20;99.90;;;;;;5035574;28;20017;-74
2022/03/16 07:30:41;;;;;;;;;;;9.00;99.90;;;;;;5035778;28;20736;-74
2022/03/16 07:33:08;;;;;;;23.58;10.80;;;9.00;99.90;;;;;;5035509;28;19909;-91
2022/03/16 07:35:35;;;;;;;30.17;14.05;;;9.30;99.90;;;;;;5018196;28;20117;-75
2022/03/16 07:38:04;;;;;;;31.65;15.30;;;9.60;99.90;;;;;;5035673;28;20029;-93
2022/03/16 07:40:31;;;;;;;24.23;13.27;;;9.70;99.90;;;;;;5035020;28;20029;-90
2022/03/16 07:42:57;;;;;;;23.02;11.57;;;9.80;99.90;;;;;;5035570;28;20424;-90
2022/03/16 07:45:23;;;;;;;25.13;12.93;;;10.00;99.90;;;;;;5034940;28;20021;-74
2022/03/16 07:47:52;;;;;;;26.27;12.82;;;9.90;99.90;;;;;;5035235;28;20057;-75
2022/03/16 07:50:19;;;;;;;27.42;13.50;;;10.00;99.90;;;;;;5035365;28;20022;-74
2022/03/16 07:52:45;;;;;;;;;;;10.00;99.90;;;;;;5037104;28;20032;-75
2022/03/16 07:55:13;;;;;;;24.00;11.23;;;9.90;99.90;;;;;;5017085;28;19909;-76
2022/03/16 07:57:39;;;;;;;24.40;12.43;;;9.90;99.90;;;;;;5035109;28;20025;-75
2022/03/16 08:00:13;;;;;;;25.83;13.13;;;10.00;99.90;;;;;;5017649;28;20084;-75
2022/03/16 08:02:43;;;;;;;22.35;12.30;;;9.80;99.90;;;;;;5035481;28;20029;-75
2022/03/16 08:05:10;;;;;;;24.02;12.45;;;9.80;99.90;;;;;;5023858;28;20033;-74
2022/03/16 08:07:38;;;;;;;25.08;11.52;;;10.10;99.90;;;;;;5015321;28;20026;-89
2022/03/16 08:10:04;;;;;;;20.77;10.98;;;10.20;99.90;;;;;;4998614;28;20105;-75
2022/03/16 08:12:30;;;;;;;20.95;11.95;;;10.40;99.90;;;;;;5015310;28;20030;-75
2022/03/16 08:14:56;;;;;;;21.17;10.23;;;10.30;99.90;;;;;;5015460;28;20022;-86
2022/03/16 08:17:22;;;;;;;18.60;11.07;;;10.30;99.90;;;;;;5006193;28;20032;-75
2022/03/16 08:19:48;;;;;;;24.77;11.77;;;10.10;99.90;;;;;;5017435;28;20405;-75
2022/03/16 08:22:26;;;;;;;17.75;8.57;;;9.90;99.90;;;;;;5020768;28;20028;-75
2022/03/16 08:25:19;;;;;;;20.92;8.95;;;9.70;99.90;;;;;;5037206;28;20064;-82
2022/03/16 08:27:45;;;;;;;18.13;9.45;;;9.90;99.90;;;;;;5032861;28;20099;-74
2022/03/16 08:30:11;;;;;;;20.08;9.50;;;10.10;99.90;;;;;;5043952;28;20049;-75
2022/03/16 08:32:38;;;;;;;20.33;10.57;;;10.30;99.90;;;;;;5045196;28;20032;-85
2022/03/16 08:35:06;;;;;;;20.08;8.77;;;10.20;99.90;;;;;;5041396;28;20037;-75
2022/03/16 08:37:32;;;;;;;18.40;9.80;;;10.10;99.90;;;;;;5044787;28;20037;-75
2022/03/16 08:39:57;;;;;;;16.45;8.35;;;10.10;99.90;;;;;;5043367;28;20418;-75
2022/03/16 08:42:23;;;;;;;17.07;7.83;;;10.10;99.90;;;;;;5027043;28;20336;-74
2022/03/16 08:44:49;;;;;;;22.03;10.47;;;9.90;99.90;;;;;;5039022;28;20032;-74
2022/03/16 08:47:16;;;;;;;16.77;7.97;;;9.80;99.90;;;;;;5042041;28;20024;-75
2022/03/16 08:49:43;;;;;;;15.23;7.95;;;9.90;99.90;;;;;;5032257;28;20029;-75
2022/03/16 08:52:10;;;;;;;21.00;9.68;;;9.80;99.90;;;;;;5035245;28;20306;-88
2022/03/16 08:54:36;;;;;;;18.60;8.80;;;9.90;99.90;;;;;;5028617;28;20031;-87
2022/03/16 08:57:02;;;;;;;15.53;7.83;;;10.00;99.90;;;;;;5044588;28;20116;-80
2022/03/16 08:59:28;;;;;;;18.00;9.40;;;10.00;99.90;;;;;;5031102;28;20033;-79
2022/03/16 09:01:54;;;;;;;17.50;9.63;;;10.00;99.90;;;;;;5038038;28;20096;-75
2022/03/16 09:04:21;;;;;;;18.63;9.23;;;10.10;99.90;;;;;;5041984;28;20294;-74
2022/03/16 09:06:48;;;;;;;23.90;9.98;;;10.10;99.90;;;;;;5037319;28;20041;-86
2022/03/16 09:09:14;;;;;;;17.15;7.43;;;10.20;99.90;;;;;;5037051;28;20021;-75
2022/03/16 09:11:40;;;;;;;17.33;8.60;;;10.30;99.90;;;;;;5039349;28;20431;-88
2022/03/16 09:14:06;;;;;;;16.97;9.70;;;10.50;99.90;;;;;;5038158;28;20022;-86
2022/03/16 09:16:32;;;;;;;17.23;7.37;;;10.70;99.90;;;;;;5031825;28;20449;-79
2022/03/16 09:18:58;;;;;;;17.40;9.05;;;10.90;99.90;;;;;;5032761;28;20102;-87
2022/03/16 09:21:27;;;;;;;16.60;7.37;;;11.30;99.90;;;;;;5033539;28;20408;-84
2022/03/16 09:23:53;;;;;;;12.40;6.88;;;11.90;99.90;;;;;;5036416;28;20049;-76
2022/03/16 09:26:22;;;;;;;15.30;6.78;;;12.40;99.90;;;;;;5039946;28;20021;-88
2022/03/16 09:28:51;;;;;;;14.23;7.68;;;12.20;99.90;;;;;;5025817;28;20049;-88
2022/03/16 09:31:17;;;;;;;13.23;6.57;;;12.20;99.90;;;;;;5036117;28;20055;-76
2022/03/16 09:33:43;;;;;;;8.00;4.93;;;12.30;99.90;;;;;;5043309;28;20049;-83
2022/03/16 09:36:09;;;;;;;10.95;5.60;;;12.50;99.90;;;;;;5027989;28;20038;-87
2022/03/16 09:38:35;;;;;;;14.53;6.77;;;12.50;99.90;;;;;;5020065;28;20078;-76
2022/03/16 09:41:02;;;;;;;13.90;6.70;;;12.40;99.90;;;;;;5038077;28;20042;-75
2022/03/16 09:43:31;;;;;;;10.63;6.63;;;12.60;99.90;;;;;;5027954;28;20071;-86
2022/03/16 09:46:07;;;;;;;11.73;5.97;;;12.80;99.90;;;;;;5033041;28;20490;-75
2022/03/16 09:48:33;;;;;;;10.73;6.28;;;13.00;99.90;;;;;;5040684;28;20025;-76
2022/03/16 09:51:00;;;;;;;12.52;6.47;;;13.00;99.90;;;;;;5038365;28;20033;-85
2022/03/16 09:53:26;;;;;;;7.47;4.65;;;13.30;99.90;;;;;;5033149;28;20620;-86
2022/03/16 09:55:53;;;;;;;9.00;4.97;;;13.40;99.90;;;;;;5035125;28;20034;-77
2022/03/16 09:58:22;;;;;;;;;;;13.40;99.90;;;;;;5037401;28;20062;-88
2022/03/16 10:00:49;;;;;;;13.07;5.63;;;13.40;99.90;;;;;;5035727;28;19909;-87
2022/03/16 10:03:16;;;;;;;10.02;5.07;;;13.30;99.90;;;;;;5033520;28;20033;-78
2022/03/16 10:05:44;;;;;;;;;;;13.40;99.90;;;;;;5023688;28;20558;-79
2022/03/16 10:08:11;;;;;;;10.80;5.30;;;13.40;99.90;;;;;;5029079;28;19909;-78
2022/03/16 10:13:24;;;;;;;12.55;5.35;;;13.70;99.90;;;;;;5031926;28;20041;-82
2022/03/16 10:16:07;;;;;;;9.60;5.28;;;14.00;99.90;;;;;;5015626;28;20033;-91
2022/03/16 10:18:36;;;;;;;11.10;5.03;;;14.10;99.90;;;;;;5031475;28;20268;-80
2022/03/16 10:21:04;;;;;;;8.75;5.50;;;14.10;99.90;;;;;;5027935;28;20030;-86
2022/03/16 10:23:30;;;;;;;9.23;5.13;;;14.10;99.90;;;;;;5020596;28;20057;-89
2022/03/16 10:26:00;;;;;;;8.93;5.35;;;14.00;99.90;;;;;;5017422;28;20037;-90
2022/03/16 10:28:30;;;;;;;13.05;5.63;;;13.90;99.90;;;;;;5027090;28;20677;-76
2022/03/16 10:31:05;;;;;;;8.73;5.63;;;13.80;99.90;;;;;;5007418;28;20052;-87
2022/03/16 10:33:53;;;;;;;12.02;5.70;;;13.70;99.90;;;;;;5025158;28;20037;-87
2022/03/16 10:36:23;;;;;;;16.10;5.72;;;13.90;99.90;;;;;;5034244;28;20025;-86
2022/03/16 10:39:02;;;;;;;11.05;4.90;;;13.80;99.90;;;;;;5017479;28;20164;-86
2022/03/16 10:47:14;;;;;;;10.80;5.38;;;13.90;99.90;;;;;;5029197;28;20044;-86
2022/03/16 10:49:40;;;;;;;12.95;6.13;;;13.90;99.90;;;;;;5034344;28;20051;-76
2022/03/16 10:52:13;;;;;;;11.65;5.22;;;14.10;99.90;;;;;;5034944;28;20088;-89
2022/03/16 10:54:38;;;;;;;8.85;5.70;;;14.10;99.90;;;;;;5034068;28;20156;-88
2022/03/16 10:57:08;;;;;;;10.53;5.07;;;14.00;99.90;;;;;;5022470;28;20137;-81
2022/03/16 10:59:34;;;;;;;8.02;5.60;;;14.20;99.90;;;;;;5034717;28;20444;-78
2022/03/16 11:02:14;;;;;;;7.20;5.03;;;14.20;99.90;;;;;;5034780;28;20099;-88
2022/03/16 11:04:42;;;;;;;13.63;6.35;;;14.10;99.90;;;;;;5028362;28;20029;-82
2022/03/16 11:07:08;;;;;;;9.75;5.20;;;14.30;99.90;;;;;;5039907;28;20071;-77
2022/03/16 11:09:35;;;;;;;11.70;5.43;;;14.40;99.90;;;;;;5047094;28;20065;-86
2022/03/16 11:14:50;;;;;;;9.18;5.18;;;14.40;99.90;;;;;;5036189;28;19919;-86
2022/03/16 11:17:16;;;;;;;10.50;5.38;;;14.40;99.90;;;;;;5039089;28;20029;-86
2022/03/16 11:19:45;;;;;;;14.13;5.10;;;14.50;99.90;;;;;;5005363;28;20064;-79
2022/03/16 11:22:15;;;;;;;13.15;5.22;;;14.50;99.90;;;;;;5036366;28;20033;-77
2022/03/16 11:24:47;;;;;;;7.50;4.30;;;14.40;99.90;;;;;;5036567;28;20037;-84
2022/03/16 11:27:25;;;;;;;11.57;5.43;;;14.60;99.90;;;;;;5029851;28;20340;-79
2022/03/16 11:30:16;;;;;;;8.35;5.57;;;14.60;99.90;;;;;;5019334;28;20044;-86
2022/03/16 11:32:45;;;;;;;8.95;5.32;;;14.80;99.90;;;;;;5028920;28;20032;-79
2022/03/16 11:35:18;;;;;;;11.70;5.43;;;14.90;99.90;;;;;;5028570;28;20029;-81
2022/03/16 11:37:50;;;;;;;10.63;5.82;;;14.80;99.70;;;;;;5012827;28;20497;-84
2022/03/16 11:40:23;;;;;;;9.82;5.38;;;14.50;99.90;;;;;;5022604;28;20098;-85
2022/03/16 11:43:08;;;;;;;9.93;5.68;;;14.20;99.90;;;;;;5029180;28;20040;-78
2022/03/16 11:45:38;;;;;;;10.32;5.93;;;14.00;99.90;;;;;;5003452;28;20121;-77
2022/03/16 11:48:36;;;;;;;12.38;6.60;;;14.00;99.90;;;;;;5006682;28;20032;-80
2022/03/16 11:51:20;;;;;;;15.43;5.80;;;14.20;99.90;;;;;;5006550;28;20061;-77
2022/03/16 11:53:57;;;;;;;11.65;5.38;;;14.30;99.90;;;;;;5033692;28;20416;-85
2022/03/16 11:56:31;;;;;;;19.40;6.07;;;14.60;99.90;;;;;;5038768;28;20120;-83
2022/03/16 11:59:06;;;;;;;11.02;6.35;;;14.70;99.90;;;;;;5026916;28;20029;-84
2022/03/16 12:01:34;;;;;;;11.60;6.47;;;14.60;99.90;;;;;;5041986;28;20363;-77
2022/03/16 12:04:16;;;;;;;8.18;5.03;;;14.50;99.90;;;;;;5029392;28;20041;-79
2022/03/16 12:07:01;;;;;;;10.82;6.15;;;14.30;99.90;;;;;;5035057;28;20041;-77
2022/03/16 12:09:40;;;;;;;10.07;6.38;;;14.20;99.90;;;;;;5033534;28;20029;-83
2022/03/16 12:14:58;;;;;;;11.85;5.72;;;14.30;99.90;;;;;;5038915;28;20036;-84
2022/03/16 12:17:24;;;;;;;10.90;5.65;;;14.40;99.90;;;;;;5041579;28;20116;-82
2022/03/16 12:20:11;;;;;;;11.03;5.87;;;14.60;99.90;;;;;;5030397;28;20113;-84
2022/03/16 12:22:39;;;;;;;9.90;5.32;;;14.80;99.90;;;;;;5030427;28;20037;-76
2022/03/16 12:25:29;;;;;;;8.73;5.45;;;14.80;99.50;;;;;;5026786;28;20065;-81
2022/03/16 12:31:00;;;;;;;8.68;5.35;;;15.20;99.90;;;;;;5038962;28;20028;-78
2022/03/16 12:33:40;;;;;;;8.75;5.38;;;15.30;99.50;;;;;;5043805;28;20053;-78
2022/03/16 12:36:16;;;;;;;10.27;4.80;;;15.40;99.50;;;;;;5030414;28;20032;-77
2022/03/16 12:38:52;;;;;;;10.57;6.00;;;15.30;99.80;;;;;;5045605;28;20025;-84
2022/03/16 12:44:06;;;;;;;9.90;5.93;;;15.20;99.40;;;;;;5039409;28;20331;-78
2022/03/16 12:46:47;;;;;;;10.95;5.65;;;15.20;99.10;;;;;;5028555;28;20033;-82
2022/03/16 12:49:15;;;;;;;11.30;5.78;;;15.10;99.60;;;;;;5028130;28;20029;-79
2022/03/16 12:51:44;;;;;;;9.65;5.65;;;15.30;99.70;;;;;;5013928;28;20313;-78
2022/03/16 12:54:13;;;;;;;9.98;5.28;;;15.30;99.90;;;;;;5024735;28;20324;-84
2022/03/16 12:56:50;;;;;;;8.23;4.93;;;15.40;99.90;;;;;;5025259;28;20038;-77
2022/03/16 12:59:26;;;;;;;;;;;15.50;99.90;;;;;;5041735;28;20065;-87
2022/03/16 13:01:52;;;;;;;;;;;15.60;99.90;;;;;;5042514;28;19909;-78
2022/03/16 13:04:19;;;;;;;6.97;4.47;;;15.50;99.90;;;;;;5030408;28;19908;-77